• Join FlightAware (Why Join?)
  • Login
  • US Flag 
01:32AM EDT


 

Airport Tracker/Info


-or-


 

Live Flight TrackerFlight Track Log ✈ SWA2336 ✈ 20-Apr-2013 ✈ KSAN - KDEN

Flight Track Log - Related Links

Times and Time Zones

All times are in EDT time to prevent confusion due to time zone crossing. See the SWA2336 flight status page for this flight to view local times or setup timezone preferences in your user account.

Time Position Orientation Groundspeed Altitude Reporting Facility
EDT Latitude Longitude Course Direction KTS MPH feet Rate Location/Type
07:49PM 32.7558 -117.2856 278° West 202 232 3,700  Level Los Angeles Center
07:50PM 32.7194 -117.3383 231° Southwest 222 255 6,700 2,640 Climbing Los Angeles Center
07:51PM 32.6706 -117.2931 142° Southeast 236 272 9,200 1,800 Climbing Los Angeles Center
07:53PM 32.6442 -117.2067 110° East 273 314 10,500 1,740 Climbing Los Angeles Center
07:54PM 32.6283 -117.0925 99° East 337 388 12,800 2,340 Climbing Los Angeles Center
07:55PM 32.6114 -116.9753 100° East 356 410 15,300 2,580 Climbing Los Angeles Center
07:56PM 32.6283 -116.8267 82° East 377 434 18,200 2,460 Climbing Los Angeles Center
07:57PM 32.7161 -116.7564 34° Northeast 380 437 20,400 2,160 Climbing Los Angeles Center
07:58PM 32.8119 -116.6936 29° Northeast 389 448 22,700 1,980 Climbing Los Angeles Center
07:59PM 32.9131 -116.6292 28° Northeast 402 463 24,600 1,740 Climbing Los Angeles Center
08:00PM 33.0183 -116.5603 29° Northeast 421 484 26,300 1,680 Climbing Los Angeles Center
08:01PM 33.1247 -116.4853 31° Northeast 438 504 28,100 1,680 Climbing Los Angeles Center
08:02PM 33.2150 -116.3803 44° Northeast 449 517 29,800 1,440 Climbing Los Angeles Center
08:03PM 33.3061 -116.2703 45° Northeast 459 528 31,100 1,140 Climbing Los Angeles Center
08:04PM 33.3986 -116.1597 45° Northeast 466 536 32,200 1,260 Climbing Los Angeles Center
08:05PM 33.4928 -116.0464 45° Northeast 475 547 33,700 1,440 Climbing Los Angeles Center
08:06PM 33.6031 -115.9111 46° Northeast 474 545 35,200 1,200 Climbing Los Angeles Center
08:07PM 33.6964 -115.7969 45° Northeast 477 549 36,300 960 Climbing Los Angeles Center
08:08PM 33.7767 -115.6642 54° Northeast 487 560 37,200 900 Climbing Los Angeles Center
08:09PM 33.8569 -115.5317 54° Northeast 491 565 38,200 840 Climbing Los Angeles Center
08:10PM 33.9375 -115.3992 54° Northeast 491 565 39,000 360 Climbing Los Angeles Center
08:11PM 34.0194 -115.2639 54° Northeast 496 571 39,000  Level Los Angeles Center
08:12PM 34.1033 -115.1236 54° Northeast 510 587 39,000  Level Los Angeles Center
08:13PM 34.2022 -114.9622 53° Northeast 501 577 39,000  Level Los Angeles Center
08:14PM 34.2839 -114.8264 54° Northeast 500 575 39,000  Level Los Angeles Center
08:15PM 34.3647 -114.6906 54° Northeast 499 574 39,000  Level Los Angeles Center
08:16PM 34.4458 -114.5536 54° Northeast 500 575 39,000  Level Los Angeles Center
08:17PM 34.5267 -114.4172 54° Northeast 498 573 39,000  Level Los Angeles Center
08:18PM 34.6064 -114.2817 54° Northeast 497 572 39,000  Level Los Angeles Center
08:19PM 34.6981 -114.1261 54° Northeast 498 573 39,000  Level Los Angeles Center
08:20PM 34.7744 -113.9939 55° Northeast 483 556 39,000  Level Los Angeles Center
08:21PM 34.8458 -113.8717 55° Northeast 480 552 39,000  Level Los Angeles Center
08:22PM 34.9375 -113.7142 55° Northeast 476 548 39,000  Level Los Angeles Center
08:23PM 35.0139 -113.5825 55° Northeast 477 549 39,000  Level Los Angeles Center
08:24PM 35.0906 -113.4508 55° Northeast 478 550 39,000  Level Los Angeles Center
08:25PM 35.1661 -113.3186 55° Northeast 476 548 39,000  Level Los Angeles Center
08:27PM 35.2478 -113.1758 55° Northeast 476 548 39,000  Level Los Angeles Center
08:28PM 35.3225 -113.0444 55° Northeast 473 544 39,000  Level Los Angeles Center
08:29PM 35.4100 -112.8897 55° Northeast 482 555 39,000  Level Los Angeles Center
08:30PM 35.4875 -112.7519 55° Northeast 489 563 39,000  Level Los Angeles Center
08:31PM 35.5647 -112.6161 55° Northeast 489 563 39,000  Level Los Angeles Center
08:32PM 35.6439 -112.4736 56° Northeast 478 550 39,000  Level Los Angeles Center
08:33PM 35.7181 -112.3417 55° Northeast 472 543 39,000  Level Los Angeles Center
08:34PM 35.7917 -112.2094 56° Northeast 471 542 39,000  Level Los Angeles Center
08:35PM 35.8650 -112.0769 56° Northeast 471 542 39,000  Level Los Angeles Center
08:36PM 35.9486 -111.9261 56° Northeast 470 541 39,000  Level Los Angeles Center
08:36PM 35.9922 -111.8461 56° Northeast 473 544 39,000  Level Denver Center
08:37PM 36.0658 -111.7108 56° Northeast 475 547 39,000  Level Denver Center
08:38PM 36.1408 -111.5739 56° Northeast 480 552 39,000  Level Denver Center
08:39PM 36.2150 -111.4383 56° Northeast 480 552 39,000  Level Denver Center
08:40PM 36.2900 -111.3006 56° Northeast 482 555 39,000  Level Denver Center
08:41PM 36.3658 -111.1611 56° Northeast 486 559 39,000  Level Denver Center
08:42PM 36.4397 -111.0228 56° Northeast 486 559 39,000  Level Denver Center
08:44PM 36.5142 -110.8856 56° Northeast 482 555 39,000  Level Denver Center
08:45PM 36.6022 -110.7203 56° Northeast 481 554 39,000  Level Denver Center
08:46PM 36.6767 -110.5828 56° Northeast 480 552 39,000  Level Denver Center
08:47PM 36.7450 -110.4492 57° Northeast 470 541 39,000  Level Denver Center
08:48PM 36.8156 -110.3144 57° Northeast 467 537 39,000  Level Denver Center
08:49PM 36.8861 -110.1786 57° Northeast 469 540 39,000  Level Denver Center
08:50PM 36.9614 -110.0361 57° Northeast 473 544 39,000  Level Denver Center
08:51PM 37.0272 -109.9058 58° Northeast 467 537 39,000  Level Denver Center
08:52PM 37.1061 -109.7531 57° Northeast 465 535 39,000  Level Denver Center
08:53PM 37.1731 -109.6244 57° Northeast 460 529 39,000  Level Denver Center
08:54PM 37.2503 -109.4736 57° Northeast 457 526 39,000  Level Denver Center
08:55PM 37.3158 -109.3453 57° Northeast 455 524 39,000  Level Denver Center
08:56PM 37.3839 -109.2139 57° Northeast 466 536 39,000  Level Denver Center
08:57PM 37.4622 -109.0589 57° Northeast 468 539 39,000  Level Denver Center
08:58PM 37.5300 -108.9253 57° Northeast 471 542 39,000  Level Denver Center
08:59PM 37.6069 -108.7672 58° Northeast 474 545 39,000  Level Denver Center
09:00PM 37.6739 -108.6356 57° Northeast 469 540 39,000  Level Denver Center
09:01PM 37.7325 -108.4944 62° Northeast 472 543 39,000  Level Denver Center
09:02PM 37.7836 -108.3111 71° East 492 566 39,000  Level Denver Center
09:03PM 37.8253 -108.1547 71° East 492 566 39,000  Level Denver Center
09:04PM 37.8747 -107.9733 71° East 490 564 39,000  Level Denver Center
09:05PM 37.9094 -107.8400 72° East 496 571 39,000  Level Denver Center
09:06PM 37.9594 -107.6564 71° East 494 568 39,000  Level Denver Center
09:07PM 38.0086 -107.4700 71° East 499 574 39,000  Level Denver Center
09:08PM 38.0497 -107.3117 72° East 495 570 39,000  Level Denver Center
09:09PM 38.0886 -107.1647 71° East 495 570 39,000  Level Denver Center
09:10PM 38.1394 -106.9681 72° East 490 564 39,000  Level Denver Center
09:11PM 38.1831 -106.7983 72° East 489 563 39,000 -180 Level Denver Center
09:12PM 38.2236 -106.6419 72° East 487 560 38,700 -600 Descending Denver Center
09:13PM 38.2961 -106.5186 53° Northeast 457 526 37,800 -1,020 Descending Denver Center
09:14PM 38.3919 -106.4000 44° Northeast 456 525 36,700 -1,080 Descending Denver Center
09:15PM 38.4783 -106.2925 44° Northeast 437 503 35,700 -840 Descending Denver Center
09:16PM 38.5647 -106.1844 44° Northeast 436 502 35,000 -360 Descending Denver Center
09:17PM 38.6619 -106.0614 45° Northeast 439 505 35,000  Level Denver Center
09:18PM 38.7492 -105.9519 44° Northeast 434 499 35,000 -1,500 Level Denver Center
09:19PM 38.8367 -105.8419 44° Northeast 436 502 32,000 -2,760 Descending Denver Center
09:20PM 38.9242 -105.7308 45° Northeast 438 504 29,400 -2,400 Descending Denver Center
09:21PM 39.0075 -105.6239 45° Northeast 424 488 27,200 -2,220 Descending Denver Center
09:22PM 39.0894 -105.5175 45° Northeast 411 473 25,000 -2,040 Descending Denver Center
09:23PM 39.1728 -105.4122 44° Northeast 403 464 23,100 -1,560 Descending Denver Center
09:25PM 39.2606 -105.3003 45° Northeast 358 412 21,600 -1,440 Descending Denver Center
09:26PM 39.3375 -105.2275 36° Northeast 340 391 19,900 -1,680 Descending Denver Center
09:27PM 39.4161 -105.1467 38° Northeast 335 386 18,200 -1,440 Descending Denver Center
09:28PM 39.4914 -105.0789 35° Northeast 333 383 17,000 -600 Descending Denver Center
09:29PM 39.5617 -105.0058 39° Northeast 326 375 17,000 -840 Level Denver Center
09:30PM 39.6394 -104.9306 37° Northeast 321 369 15,400 -1,380 Descending Denver Center
09:31PM 39.7083 -104.8628 37° Northeast 313 360 14,200 -840 Descending Denver Center
09:32PM 39.7839 -104.8522 North 276 318 13,700 -540 Descending Denver Center
09:33PM 39.8475 -104.8456 North 232 267 13,200 -720 Descending Denver Center
09:34PM 39.8961 -104.8433 North 208 239 12,300 -1,080 Descending Denver Center
09:35PM 39.9672 -104.8411 North 207 238 11,000 -1,080 Descending Denver Center
09:36PM 40.0228 -104.8397 North 201 231 10,100 -1,020 Descending Denver Center
09:37PM 40.0736 -104.8256 12° North 201 231 9,000 -1,020 Descending Denver Center
09:38PM 40.0719 -104.7511 92° East 189 217 8,100 -600 Descending Denver Center
09:39PM 40.0286 -104.7181 150° Southeast 178 205 7,800 -600 Descending Denver Center
09:40PM 39.9878 -104.6903 152° Southeast 168 193 6,900 -840 Descending Denver Center
09:41PM 39.9414 -104.6864 176° South 166 191 6,200 -780 Descending Denver Center
09:42PM 39.9006 -104.6869 181° South 139 160 5,400 -780 Descending Denver Center
09:44PM 39.8617 -104.6732 North  Level Estimated
09:51PM 39.8617 -104.6732 North  Level Estimated
09:52PM 39.8617 -104.6732 North  Level Estimated
09:53PM 39.8617 -104.6732 North  Level Estimated